createdAt,value
2022-09-05T00:02:34.135Z,4.97
2022-09-05T00:05:30.771Z,5.10
2022-09-05T00:08:06.169Z,5.05
2022-09-05T00:11:39.642Z,5.25
2022-09-05T00:13:36.753Z,5.20
2022-09-05T00:16:20.208Z,4.47
2022-09-05T00:21:17.720Z,4.35
2022-09-05T00:24:33.149Z,4.78
2022-09-05T00:25:28.209Z,4.95
2022-09-05T00:27:58.627Z,5.50
2022-09-05T00:31:06.958Z,5.65
2022-09-05T00:33:33.538Z,4.68
2022-09-05T00:36:11.248Z,5.10
2022-09-05T00:38:42.803Z,5.40
2022-09-05T00:41:14.418Z,5.18
2022-09-05T00:43:46.146Z,4.68
2022-09-05T00:46:17.694Z,5.30
2022-09-05T00:48:51.829Z,4.18
2022-09-05T00:51:34.415Z,5.30
2022-09-05T00:54:40.410Z,5.25
2022-09-05T00:57:30.629Z,5.30
2022-09-05T01:00:16.982Z,5.40
2022-09-05T01:03:21.944Z,5.75
2022-09-05T01:06:03.605Z,5.50
2022-09-05T01:08:53.244Z,5.57
2022-09-05T01:11:36.085Z,6.03
2022-09-05T01:14:21.118Z,5.75
2022-09-05T01:17:12.189Z,5.60
2022-09-05T01:20:18.657Z,5.22
2022-09-05T01:23:20.017Z,5.47
2022-09-05T01:26:07.312Z,5.10
2022-09-05T01:29:15.982Z,5.75
2022-09-05T01:31:38.721Z,5.85
2022-09-05T01:34:20.151Z,5.95
2022-09-05T01:37:33.051Z,5.80
2022-09-05T01:40:14.809Z,6.25
2022-09-05T01:42:55.710Z,6.00
2022-09-05T01:45:39.473Z,5.53
2022-09-05T01:48:12.799Z,6.10
2022-09-05T01:50:51.624Z,5.72
2022-09-05T01:53:34.363Z,6.13
2022-09-05T01:56:38.279Z,5.95
2022-09-05T01:59:20.812Z,5.55
2022-09-05T02:02:11.567Z,5.72
2022-09-05T02:05:47.218Z,6.10
2022-09-05T02:08:38.671Z,6.10
2022-09-05T02:11:11.479Z,6.03
2022-09-05T02:14:03.613Z,5.80
2022-09-05T02:16:43.108Z,6.53
2022-09-05T02:19:18.286Z,6.05
2022-09-05T02:21:57.506Z,6.85
2022-09-05T02:24:34.245Z,6.35
2022-09-05T02:27:48.912Z,5.88
2022-09-05T02:30:17.090Z,6.25
2022-09-05T02:32:55.316Z,6.78
2022-09-05T02:35:33.076Z,5.88
2022-09-05T02:39:09.232Z,5.75
2022-09-05T02:45:08.246Z,6.13
2022-09-05T02:45:14.816Z,6.65
2022-09-05T02:46:50.804Z,6.70
2022-09-05T02:53:31.682Z,6.22
2022-09-05T02:57:26.978Z,6.65
2022-09-05T02:57:34.205Z,6.78
2022-09-05T02:59:08.017Z,6.22
2022-09-05T03:01:53.768Z,6.60
2022-09-05T03:04:32.479Z,5.95
2022-09-05T03:07:13.100Z,5.95
2022-09-05T03:09:57.602Z,6.47
2022-09-05T03:13:07.740Z,6.03
2022-09-05T03:16:14.774Z,6.95
2022-09-05T03:19:13.880Z,6.10
2022-09-05T03:22:06.311Z,6.22
2022-09-05T03:25:07.138Z,6.50
2022-09-05T03:28:09.133Z,6.35
2022-09-05T03:30:55.126Z,6.25
2022-09-05T03:33:56.972Z,6.10
2022-09-05T03:37:01.269Z,5.82
2022-09-05T03:40:15.381Z,5.95
2022-09-05T03:43:17.208Z,5.65
2022-09-05T03:46:09.665Z,5.53
2022-09-05T03:50:57.709Z,5.93
2022-09-05T03:57:16.382Z,5.78
2022-09-05T03:57:19.158Z,5.93
2022-09-05T03:58:55.789Z,5.85
2022-09-05T04:06:44.179Z,5.53
2022-09-05T04:08:11.158Z,5.35
2022-09-05T04:08:23.833Z,6.05
2022-09-05T04:10:27.549Z,6.35
2022-09-05T04:13:00.332Z,5.30
2022-09-05T04:15:37.941Z,5.47
2022-09-05T04:18:32.682Z,5.18
2022-09-05T04:21:05.035Z,5.15
2022-09-05T04:23:43.441Z,5.38
2022-09-05T04:26:31.299Z,5.63
2022-09-05T04:29:10.480Z,5.32
2022-09-05T04:31:56.277Z,5.35
2022-09-05T04:34:51.241Z,5.60
2022-09-05T04:37:48.393Z,5.22
2022-09-05T04:40:37.504Z,5.32
2022-09-05T04:43:09.037Z,4.85
2022-09-05T04:45:40.987Z,5.57
2022-09-05T04:48:15.833Z,7.33
2022-09-05T04:51:04.512Z,6.13
2022-09-05T04:54:06.498Z,5.63
2022-09-05T04:56:38.839Z,5.88
2022-09-05T05:02:45.971Z,5.40
2022-09-05T05:06:09.766Z,5.25
2022-09-05T05:06:14.080Z,4.55
2022-09-05T05:08:04.640Z,5.03
2022-09-05T05:13:55.319Z,5.15
2022-09-05T05:17:59.775Z,5.28
2022-09-05T05:18:14.372Z,5.03
2022-09-05T05:19:21.753Z,5.22
2022-09-05T05:21:55.810Z,4.60
2022-09-05T05:24:28.519Z,4.60
2022-09-05T05:27:05.876Z,4.55
2022-09-05T05:29:43.214Z,4.80
2022-09-05T05:32:19.480Z,4.63
2022-09-05T05:35:05.325Z,4.65
2022-09-05T05:37:38.251Z,4.73
2022-09-05T05:42:38.989Z,4.57
2022-09-05T05:45:16.925Z,4.68
2022-09-05T05:47:47.543Z,4.68
2022-09-05T05:50:33.510Z,5.13
2022-09-05T05:53:43.558Z,4.68
2022-09-05T05:56:40.486Z,4.85
2022-09-05T05:59:33.113Z,4.60
2022-09-05T06:02:42.446Z,4.05
2022-09-05T06:05:42.365Z,4.65
2022-09-05T06:12:40.105Z,4.53
2022-09-05T06:15:06.827Z,4.70
2022-09-05T06:15:26.647Z,4.63
2022-09-05T06:18:29.688Z,4.47
2022-09-05T06:22:10.741Z,4.50
2022-09-05T06:25:16.223Z,4.97
2022-09-05T06:28:17.315Z,5.45
2022-09-05T06:31:19.770Z,4.68
2022-09-05T06:34:01.893Z,4.47
2022-09-05T06:36:48.875Z,4.47
2022-09-05T06:39:27.107Z,5.07
2022-09-05T06:42:42.137Z,4.22
2022-09-05T06:45:30.981Z,4.25
2022-09-05T06:48:10.207Z,4.30
2022-09-05T06:51:14.560Z,4.55
2022-09-05T06:54:04.817Z,3.88
2022-09-05T06:56:56.287Z,4.57
2022-09-05T07:00:06.075Z,4.47
2022-09-05T07:02:59.168Z,4.13
2022-09-05T07:05:40.113Z,4.43
2022-09-05T07:08:35.386Z,4.10
2022-09-05T07:11:15.882Z,4.20
2022-09-05T07:13:55.118Z,5.45
2022-09-05T07:16:50.926Z,4.03
2022-09-05T07:19:29.379Z,4.63
2022-09-05T07:22:47.859Z,4.45
2022-09-05T07:25:08.655Z,4.30
2022-09-05T07:28:26.168Z,5.00
2022-09-05T07:30:34.813Z,4.15
2022-09-05T07:33:07.506Z,4.47
2022-09-05T07:35:42.466Z,4.88
2022-09-05T07:38:16.586Z,5.55
2022-09-05T07:40:51.572Z,4.40
2022-09-05T07:43:26.074Z,4.45
2022-09-05T07:46:11.524Z,4.40
2022-09-05T07:48:44.267Z,4.50
2022-09-05T07:56:49.057Z,4.65
2022-09-05T07:57:09.946Z,4.57
2022-09-05T08:00:03.281Z,4.25
2022-09-05T08:02:47.000Z,6.15
2022-09-05T08:05:34.365Z,4.28
2022-09-05T08:08:07.419Z,4.57
2022-09-05T08:11:14.494Z,5.03
2022-09-05T08:13:51.547Z,4.68
2022-09-05T08:16:23.734Z,4.68
2022-09-05T08:18:55.863Z,4.95
2022-09-05T08:21:31.357Z,4.60
2022-09-05T08:24:13.884Z,4.10
2022-09-05T08:26:47.500Z,4.50
2022-09-05T08:29:27.167Z,4.70
2022-09-05T08:32:00.321Z,4.25
2022-09-05T08:34:44.520Z,5.00
2022-09-05T08:37:21.027Z,5.38
2022-09-05T08:40:07.220Z,5.15
2022-09-05T08:42:55.789Z,4.47
2022-09-05T08:46:46.800Z,4.45
2022-09-05T08:48:42.401Z,4.53
2022-09-05T08:51:29.229Z,4.68
2022-09-05T08:54:23.734Z,4.95
2022-09-05T08:56:58.231Z,5.15
2022-09-05T08:59:37.035Z,4.97
2022-09-05T09:03:04.343Z,5.43
2022-09-05T09:06:14.197Z,4.95
2022-09-05T09:08:55.310Z,4.90
2022-09-05T09:11:34.147Z,5.10
2022-09-05T09:14:38.279Z,4.72
2022-09-05T09:17:41.526Z,4.88
2022-09-05T09:20:19.013Z,4.88
2022-09-05T09:22:57.960Z,4.50
2022-09-05T09:25:34.000Z,4.47
2022-09-05T09:28:49.440Z,4.82
2022-09-05T09:31:37.891Z,4.22
2022-09-05T09:34:23.857Z,4.68
2022-09-05T09:37:31.946Z,4.72
2022-09-05T09:40:38.947Z,4.82
2022-09-05T09:43:19.090Z,4.00
2022-09-05T09:46:14.262Z,4.10
2022-09-05T09:48:58.294Z,4.57
2022-09-05T09:52:02.358Z,4.40
2022-09-05T09:55:20.979Z,4.60
2022-09-05T09:58:19.209Z,4.57
2022-09-05T10:00:56.118Z,4.40
2022-09-05T10:08:26.973Z,3.78
2022-09-05T10:10:46.168Z,4.32
2022-09-05T10:10:50.462Z,4.15
2022-09-05T10:13:35.872Z,4.25
2022-09-05T10:16:48.788Z,3.60
2022-09-05T10:20:09.495Z,4.38
2022-09-05T10:23:15.009Z,4.30
2022-09-05T10:26:10.550Z,4.05
2022-09-05T10:28:42.734Z,4.60
2022-09-05T10:35:02.827Z,4.40
2022-09-05T10:37:03.348Z,4.30
2022-09-05T10:39:35.512Z,4.47
2022-09-05T10:42:08.925Z,4.00
2022-09-05T10:44:40.977Z,4.20
2022-09-05T10:47:24.679Z,4.43
2022-09-05T10:50:03.584Z,3.92
2022-09-05T10:52:37.396Z,3.60
2022-09-05T10:55:15.596Z,3.72
2022-09-05T10:57:59.846Z,3.58
2022-09-05T11:02:26.500Z,4.38
2022-09-05T11:03:54.579Z,4.20
2022-09-05T11:06:47.932Z,3.90
2022-09-05T11:09:32.954Z,3.83
2022-09-05T11:12:08.466Z,3.92
2022-09-05T11:14:49.411Z,4.15
2022-09-05T11:17:30.202Z,3.70
2022-09-05T11:20:20.286Z,3.47
2022-09-05T11:23:10.215Z,3.67
2022-09-05T11:25:41.042Z,3.70
2022-09-05T11:28:17.328Z,4.50
2022-09-05T11:30:53.402Z,3.80
2022-09-05T11:37:52.256Z,3.80
2022-09-05T11:39:50.726Z,4.15
2022-09-05T11:40:31.020Z,4.78
2022-09-05T11:43:40.944Z,4.13
2022-09-05T11:46:29.991Z,4.68
2022-09-05T11:49:42.955Z,4.45
2022-09-05T11:52:51.364Z,4.00
2022-09-05T11:55:49.997Z,3.60
2022-09-05T11:58:45.319Z,4.20
2022-09-05T12:01:41.659Z,3.90
2022-09-05T12:04:41.787Z,4.40
2022-09-05T12:07:29.997Z,4.00
2022-09-05T12:10:45.728Z,4.78
2022-09-05T12:13:24.576Z,4.68
2022-09-05T12:16:07.410Z,4.15
2022-09-05T12:18:45.694Z,4.40
2022-09-05T12:21:31.671Z,3.80
2022-09-05T12:24:58.883Z,4.88
2022-09-05T12:27:40.163Z,4.32
2022-09-05T12:29:59.581Z,4.55
2022-09-05T12:33:40.085Z,4.72
2022-09-05T12:36:11.677Z,4.00
2022-09-05T12:41:42.852Z,4.68
2022-09-05T12:44:41.722Z,5.57
2022-09-05T12:47:18.657Z,4.70
2022-09-05T12:50:03.400Z,5.05
2022-09-05T12:52:44.916Z,4.70
2022-09-05T12:55:22.615Z,5.28
2022-09-05T13:03:01.032Z,5.43
2022-09-05T13:03:59.452Z,4.65
2022-09-05T13:06:31.314Z,4.70
2022-09-05T13:09:04.930Z,4.68
2022-09-05T13:14:49.526Z,5.30
2022-09-05T13:14:56.091Z,4.15
2022-09-05T13:17:31.013Z,4.75
2022-09-05T13:20:01.155Z,4.75
2022-09-05T13:22:29.781Z,4.55
2022-09-05T13:25:16.584Z,5.22
2022-09-05T13:27:56.652Z,5.10
2022-09-05T13:31:56.357Z,4.75
2022-09-05T13:37:55.080Z,4.47
2022-09-05T13:38:02.434Z,4.53
2022-09-05T13:39:06.301Z,4.90
2022-09-05T13:41:38.805Z,4.85
2022-09-05T13:44:27.488Z,4.88
2022-09-05T13:46:59.703Z,4.80
2022-09-05T13:49:33.201Z,6.22
2022-09-05T13:52:26.237Z,5.00
2022-09-05T13:57:36.861Z,6.13
2022-09-05T14:00:51.707Z,4.53
2022-09-05T14:03:40.215Z,5.67
2022-09-05T14:06:45.690Z,5.30
2022-09-05T14:09:35.736Z,4.35
2022-09-05T14:12:12.654Z,5.03
2022-09-05T14:17:52.811Z,4.78
2022-09-05T14:20:43.181Z,4.78
2022-09-05T14:23:15.504Z,4.78
2022-09-05T14:25:49.918Z,4.75
2022-09-05T14:28:31.676Z,4.90
2022-09-05T14:37:34.213Z,4.82
2022-09-05T14:37:41.622Z,4.75
2022-09-05T14:37:50.479Z,4.70
2022-09-05T14:40:49.742Z,4.80
2022-09-05T14:43:57.242Z,4.57
2022-09-05T14:46:53.381Z,4.65
2022-09-05T14:49:49.576Z,4.35
2022-09-05T14:52:23.570Z,4.70
2022-09-05T15:02:45.585Z,4.82
2022-09-05T15:02:54.062Z,4.90
2022-09-05T15:06:37.386Z,5.03
2022-09-05T15:12:16.258Z,5.57
2022-09-05T15:12:27.593Z,4.80
2022-09-05T15:15:00.425Z,5.70
2022-09-05T15:17:30.842Z,5.20
2022-09-05T15:20:06.086Z,5.35
2022-09-05T15:22:37.760Z,5.00
2022-09-05T15:25:24.514Z,4.90
2022-09-05T15:27:56.729Z,5.05
2022-09-05T15:30:31.892Z,4.47
2022-09-05T15:33:17.681Z,5.07
2022-09-05T15:35:46.538Z,5.17
2022-09-05T15:38:29.846Z,5.00
2022-09-05T15:41:22.635Z,4.80
2022-09-05T15:44:00.945Z,4.88
2022-09-05T15:46:47.215Z,4.90
2022-09-05T15:49:29.053Z,5.28
2022-09-05T15:51:59.373Z,4.68
2022-09-05T15:54:37.587Z,4.70
2022-09-05T15:57:17.517Z,4.95
2022-09-05T15:59:49.170Z,5.55
2022-09-05T16:02:20.476Z,4.90
2022-09-05T16:09:06.095Z,5.00
2022-09-05T16:10:38.521Z,5.30
2022-09-05T16:13:51.996Z,4.18
2022-09-05T16:23:19.951Z,4.35
2022-09-05T16:23:24.443Z,4.90
2022-09-05T16:23:33.605Z,5.10
2022-09-05T16:25:02.896Z,4.50
2022-09-05T16:27:50.703Z,5.07
2022-09-05T16:30:23.886Z,5.10
2022-09-05T16:32:59.196Z,4.63
2022-09-05T16:35:28.004Z,4.40
2022-09-05T16:38:24.261Z,4.90
2022-09-05T16:41:11.791Z,5.00
2022-09-05T16:43:44.586Z,4.95
2022-09-05T16:46:20.906Z,5.10
2022-09-05T16:48:56.130Z,5.25
2022-09-05T16:51:35.552Z,5.05
2022-09-05T16:54:11.364Z,4.97
2022-09-05T16:56:42.523Z,4.78
2022-09-05T16:59:15.737Z,5.22
2022-09-05T17:02:05.778Z,4.78
2022-09-05T17:05:03.376Z,4.78
2022-09-05T17:07:58.371Z,4.70
2022-09-05T17:12:57.232Z,5.40
2022-09-05T17:15:29.212Z,5.40
2022-09-05T17:18:22.513Z,5.20
2022-09-05T17:20:56.725Z,4.63
2022-09-05T17:27:19.920Z,4.20
2022-09-05T17:29:31.260Z,4.97
2022-09-05T17:32:48.364Z,4.27
2022-09-05T17:35:24.024Z,5.25
2022-09-05T17:38:36.744Z,4.50
2022-09-05T17:41:51.131Z,4.47
2022-09-05T17:44:25.498Z,5.97
2022-09-05T17:47:05.369Z,5.32
2022-09-05T17:49:43.114Z,5.20
2022-09-05T17:52:28.848Z,5.50
2022-09-05T17:54:57.789Z,5.43
2022-09-05T17:57:40.963Z,5.47
2022-09-05T18:01:00.487Z,5.20
2022-09-05T18:04:16.588Z,5.13
2022-09-05T18:06:59.780Z,5.57
2022-09-05T18:10:03.528Z,5.03
2022-09-05T18:13:31.655Z,4.97
2022-09-05T18:16:12.607Z,5.25
2022-09-05T18:19:33.317Z,6.05
2022-09-05T18:21:49.579Z,5.75
2022-09-05T18:24:24.637Z,4.97
2022-09-05T18:30:09.292Z,5.32
2022-09-05T18:32:45.165Z,5.65
2022-09-05T18:35:26.392Z,5.10
2022-09-05T18:38:51.574Z,5.40
2022-09-05T18:41:21.771Z,4.97
2022-09-05T18:44:12.984Z,5.30
2022-09-05T18:46:48.317Z,5.28
2022-09-05T18:49:53.251Z,5.43
2022-09-05T18:52:23.248Z,5.18
2022-09-05T18:56:11.024Z,5.25
2022-09-05T18:57:50.498Z,5.60
2022-09-05T19:00:35.166Z,5.38
2022-09-05T19:03:20.078Z,6.72
2022-09-05T19:05:56.642Z,5.95
2022-09-05T19:08:48.713Z,6.85
2022-09-05T19:11:28.128Z,5.47
2022-09-05T19:14:26.137Z,5.35
2022-09-05T19:16:51.961Z,5.45
2022-09-05T19:19:24.994Z,5.28
2022-09-05T19:22:48.566Z,5.30
2022-09-05T19:24:48.254Z,4.72
2022-09-05T19:28:13.946Z,4.63
2022-09-05T19:36:57.235Z,4.85
2022-09-05T19:36:57.369Z,5.07
2022-09-05T19:37:13.413Z,5.53
2022-09-05T19:41:16.345Z,5.00
2022-09-05T19:47:35.374Z,5.75
2022-09-05T19:47:36.579Z,5.00
2022-09-05T19:47:56.106Z,5.57
2022-09-05T19:50:21.573Z,4.63
2022-09-05T19:52:54.266Z,5.30
2022-09-05T19:55:24.489Z,5.05
2022-09-05T19:58:05.250Z,5.90
2022-09-05T20:00:51.919Z,4.82
2022-09-05T20:03:38.309Z,5.38
2022-09-05T20:06:30.043Z,4.78
2022-09-05T20:09:16.531Z,4.93
2022-09-05T20:11:49.650Z,5.28
2022-09-05T20:14:24.517Z,5.20
2022-09-05T20:16:55.121Z,5.18
2022-09-05T20:19:28.893Z,5.40
2022-09-05T20:21:59.310Z,4.80
2022-09-05T20:24:41.476Z,5.25
2022-09-05T20:27:11.301Z,5.28
2022-09-05T20:29:55.277Z,5.53
2022-09-05T20:32:38.844Z,4.97
2022-09-05T20:37:18.465Z,4.78
2022-09-05T20:43:20.080Z,5.22
2022-09-05T20:43:20.650Z,5.03
2022-09-05T20:43:53.557Z,5.15
2022-09-05T20:49:52.574Z,5.35
2022-09-05T20:54:10.490Z,5.10
2022-09-05T20:54:26.661Z,4.43
2022-09-05T20:55:39.769Z,4.90
2022-09-05T20:58:13.468Z,5.20
2022-09-05T21:01:15.566Z,4.60
2022-09-05T21:03:37.931Z,4.93
2022-09-05T21:06:20.034Z,4.65
2022-09-05T21:08:48.139Z,4.03
2022-09-05T21:11:16.451Z,4.07
2022-09-05T21:13:53.424Z,4.72
2022-09-05T21:16:27.867Z,4.15
2022-09-05T21:18:56.164Z,3.90
2022-09-05T21:21:28.918Z,4.03
2022-09-05T21:24:23.536Z,4.13
2022-09-05T21:26:51.831Z,3.75
2022-09-05T21:29:32.541Z,3.58
2022-09-05T21:32:03.946Z,3.67
2022-09-05T21:34:46.371Z,4.00
2022-09-05T21:37:16.297Z,3.97
2022-09-05T21:40:00.223Z,3.65
2022-09-05T21:47:33.547Z,3.50
2022-09-05T21:47:43.873Z,4.18
2022-09-05T21:48:14.957Z,3.45
2022-09-05T21:50:46.676Z,3.43
2022-09-05T21:56:29.718Z,3.40
2022-09-05T21:59:16.840Z,3.90
2022-09-05T21:59:26.555Z,3.50
2022-09-05T22:01:58.615Z,3.22
2022-09-05T22:04:29.318Z,3.15
2022-09-05T22:07:02.745Z,3.23
2022-09-05T22:09:32.865Z,3.70
2022-09-05T22:12:00.930Z,3.20
2022-09-05T22:14:40.461Z,3.00
2022-09-05T22:17:12.016Z,3.20
2022-09-05T22:19:40.095Z,3.22
2022-09-05T22:22:16.502Z,3.20
2022-09-05T22:24:49.748Z,3.00
2022-09-05T22:27:19.845Z,3.47
2022-09-05T22:29:50.839Z,2.95
2022-09-05T22:32:26.603Z,2.80
2022-09-05T22:35:27.880Z,2.90
2022-09-05T22:38:00.181Z,3.00
2022-09-05T22:40:29.853Z,2.53
2022-09-05T22:43:02.236Z,2.83
2022-09-05T22:45:32.064Z,2.40
2022-09-05T22:48:10.050Z,2.22
2022-09-05T22:50:38.870Z,2.42
2022-09-05T22:53:08.410Z,2.60
2022-09-05T22:55:41.964Z,2.20
2022-09-05T22:58:11.272Z,2.35
2022-09-05T23:00:44.499Z,2.70
2022-09-05T23:03:13.830Z,2.45
2022-09-05T23:05:41.800Z,2.45
2022-09-05T23:08:10.485Z,2.20
2022-09-05T23:10:38.748Z,2.40
2022-09-05T23:13:09.151Z,2.50
2022-09-05T23:15:37.992Z,1.88
2022-09-05T23:18:06.661Z,2.28
2022-09-05T23:20:36.066Z,2.47
2022-09-05T23:23:06.056Z,2.30
2022-09-05T23:25:34.789Z,2.10
2022-09-05T23:28:07.936Z,2.30
2022-09-05T23:30:36.580Z,1.95
2022-09-05T23:33:06.954Z,2.20
2022-09-05T23:35:36.528Z,2.00
2022-09-05T23:38:09.152Z,2.03
2022-09-05T23:40:37.131Z,2.08
2022-09-05T23:43:06.026Z,2.05
2022-09-05T23:45:34.691Z,2.35
2022-09-05T23:48:02.923Z,1.70
2022-09-05T23:50:30.943Z,1.80
2022-09-05T23:53:04.591Z,1.75
2022-09-05T23:55:32.798Z,1.90
2022-09-05T23:58:00.778Z,1.77
